sensor_id;sensor_type;location;lat;lon;timestamp;pressure;altitude;pressure_sealevel;temperature;humidity
75414;BME280;64758;52.122;5.404;2023-08-17T00:01:34;102299.78;;;17.18;93.41
75414;BME280;64758;52.122;5.404;2023-08-17T00:04:00;102304.69;;;17.15;93.18
75414;BME280;64758;52.122;5.404;2023-08-17T00:06:27;102298.88;;;17.11;93.06
75414;BME280;64758;52.122;5.404;2023-08-17T00:08:54;102305.91;;;17.12;93.88
75414;BME280;64758;52.122;5.404;2023-08-17T00:11:20;102298.41;;;17.08;93.87
75414;BME280;64758;52.122;5.404;2023-08-17T00:13:47;102290.75;;;17.05;93.93
75414;BME280;64758;52.122;5.404;2023-08-17T00:16:14;102306.84;;;17.05;94.06
75414;BME280;64758;52.122;5.404;2023-08-17T00:18:41;102300.03;;;17.02;94.78
75414;BME280;64758;52.122;5.404;2023-08-17T00:21:08;102293.19;;;17.00;94.57
75414;BME280;64758;52.122;5.404;2023-08-17T00:23:35;102298.13;;;16.96;94.82
75414;BME280;64758;52.122;5.404;2023-08-17T00:26:02;102293.94;;;16.94;95.14
75414;BME280;64758;52.122;5.404;2023-08-17T00:28:28;102290.63;;;16.92;95.22
75414;BME280;64758;52.122;5.404;2023-08-17T00:30:55;102293.69;;;16.89;95.25
75414;BME280;64758;52.122;5.404;2023-08-17T00:33:21;102294.53;;;16.89;95.52
75414;BME280;64758;52.122;5.404;2023-08-17T00:35:48;102292.88;;;16.88;95.80
75414;BME280;64758;52.122;5.404;2023-08-17T00:38:14;102299.44;;;16.86;95.71
75414;BME280;64758;52.122;5.404;2023-08-17T00:40:41;102295.09;;;16.85;95.60
75414;BME280;64758;52.122;5.404;2023-08-17T00:43:08;102295.47;;;16.82;95.61
75414;BME280;64758;52.122;5.404;2023-08-17T00:45:35;102298.16;;;16.82;95.95
75414;BME280;64758;52.122;5.404;2023-08-17T00:48:03;102293.00;;;16.80;95.95
75414;BME280;64758;52.122;5.404;2023-08-17T00:50:35;102285.97;;;16.79;95.86
75414;BME280;64758;52.122;5.404;2023-08-17T00:53:04;102287.81;;;16.79;96.21
75414;BME280;64758;52.122;5.404;2023-08-17T00:55:31;102286.53;;;16.75;95.71
75414;BME280;64758;52.122;5.404;2023-08-17T00:57:59;102288.19;;;16.76;95.05
75414;BME280;64758;52.122;5.404;2023-08-17T01:00:26;102298.28;;;16.74;95.89
75414;BME280;64758;52.122;5.404;2023-08-17T01:02:54;102286.91;;;16.72;95.75
75414;BME280;64758;52.122;5.404;2023-08-17T01:05:23;102295.97;;;16.71;96.10
75414;BME280;64758;52.122;5.404;2023-08-17T01:07:49;102296.81;;;16.71;95.82
75414;BME280;64758;52.122;5.404;2023-08-17T01:10:16;102288.31;;;16.68;95.81
75414;BME280;64758;52.122;5.404;2023-08-17T01:15:32;102294.81;;;16.59;96.16
75414;BME280;64758;52.122;5.404;2023-08-17T01:18:16;102296.47;;;16.60;96.31
75414;BME280;64758;52.122;5.404;2023-08-17T01:20:44;102295.66;;;16.60;96.39
75414;BME280;64758;52.122;5.404;2023-08-17T01:23:11;102289.44;;;16.59;96.25
75414;BME280;64758;52.122;5.404;2023-08-17T01:25:38;102281.59;;;16.58;96.52
75414;BME280;64758;52.122;5.404;2023-08-17T01:28:05;102278.09;;;16.57;96.39
75414;BME280;64758;52.122;5.404;2023-08-17T01:30:51;102280.16;;;16.55;96.36
75414;BME280;64758;52.122;5.404;2023-08-17T01:33:27;102275.16;;;16.52;96.57
75414;BME280;64758;52.122;5.404;2023-08-17T01:36:05;102284.03;;;16.53;96.59
75414;BME280;64758;52.122;5.404;2023-08-17T01:38:34;102276.19;;;16.51;96.86
75414;BME280;64758;52.122;5.404;2023-08-17T01:41:02;102284.22;;;16.51;96.99
75414;BME280;64758;52.122;5.404;2023-08-17T01:43:30;102274.69;;;16.49;97.18
75414;BME280;64758;52.122;5.404;2023-08-17T01:45:58;102283.75;;;16.48;97.12
75414;BME280;64758;52.122;5.404;2023-08-17T01:48:25;102288.94;;;16.49;96.98
75414;BME280;64758;52.122;5.404;2023-08-17T01:50:52;102277.97;;;16.44;97.13
75414;BME280;64758;52.122;5.404;2023-08-17T01:53:18;102277.09;;;16.44;97.36
75414;BME280;64758;52.122;5.404;2023-08-17T01:55:45;102276.28;;;16.43;97.32
75414;BME280;64758;52.122;5.404;2023-08-17T01:58:11;102272.97;;;16.41;97.26
75414;BME280;64758;52.122;5.404;2023-08-17T02:00:38;102271.69;;;16.37;97.87
75414;BME280;64758;52.122;5.404;2023-08-17T02:03:05;102268.16;;;16.37;97.88
75414;BME280;64758;52.122;5.404;2023-08-17T02:05:31;102271.22;;;16.34;98.15
75414;BME280;64758;52.122;5.404;2023-08-17T02:07:58;102272.69;;;16.36;97.88
75414;BME280;64758;52.122;5.404;2023-08-17T02:10:24;102270.41;;;16.33;97.60
75414;BME280;64758;52.122;5.404;2023-08-17T02:12:51;102268.59;;;16.26;98.02
75414;BME280;64758;52.122;5.404;2023-08-17T02:15:27;102269.84;;;16.23;98.16
75414;BME280;64758;52.122;5.404;2023-08-17T02:17:53;102270.00;;;16.22;98.69
75414;BME280;64758;52.122;5.404;2023-08-17T02:20:20;102287.97;;;16.21;98.58
75414;BME280;64758;52.122;5.404;2023-08-17T02:22:46;102282.97;;;16.18;99.00
75414;BME280;64758;52.122;5.404;2023-08-17T02:25:13;102286.66;;;16.17;99.11
75414;BME280;64758;52.122;5.404;2023-08-17T02:27:40;102283.34;;;16.15;99.14
75414;BME280;64758;52.122;5.404;2023-08-17T02:30:07;102283.72;;;16.12;99.24
75414;BME280;64758;52.122;5.404;2023-08-17T02:32:34;102275.03;;;16.10;99.44
75414;BME280;64758;52.122;5.404;2023-08-17T02:35:01;102284.72;;;16.11;99.72
75414;BME280;64758;52.122;5.404;2023-08-17T02:37:27;102270.69;;;16.09;100.00
75414;BME280;64758;52.122;5.404;2023-08-17T02:39:54;102271.69;;;16.08;100.00
75414;BME280;64758;52.122;5.404;2023-08-17T02:42:20;102274.66;;;16.13;99.95
75414;BME280;64758;52.122;5.404;2023-08-17T02:44:47;102280.84;;;16.14;100.00
75414;BME280;64758;52.122;5.404;2023-08-17T02:47:14;102264.09;;;16.12;100.00
75414;BME280;64758;52.122;5.404;2023-08-17T02:49:41;102255.25;;;16.11;99.89
75414;BME280;64758;52.122;5.404;2023-08-17T02:52:07;102255.25;;;16.11;99.95
75414;BME280;64758;52.122;5.404;2023-08-17T02:54:34;102257.28;;;16.09;99.83
75414;BME280;64758;52.122;5.404;2023-08-17T02:57:00;102260.97;;;16.08;99.93
75414;BME280;64758;52.122;5.404;2023-08-17T02:59:27;102260.97;;;16.08;100.00
75414;BME280;64758;52.122;5.404;2023-08-17T03:01:53;102268.00;;;16.09;100.00
75414;BME280;64758;52.122;5.404;2023-08-17T03:04:21;102266.97;;;16.10;100.00
75414;BME280;64758;52.122;5.404;2023-08-17T03:06:47;102250.25;;;16.08;100.00
75414;BME280;64758;52.122;5.404;2023-08-17T03:09:14;102255.25;;;16.11;100.00
75414;BME280;64758;52.122;5.404;2023-08-17T03:11:40;102255.25;;;16.11;100.00
75414;BME280;64758;52.122;5.404;2023-08-17T03:14:07;102256.44;;;16.09;99.80
75414;BME280;64758;52.122;5.404;2023-08-17T03:16:33;102262.63;;;16.09;99.62
75414;BME280;64758;52.122;5.404;2023-08-17T03:19:00;102261.78;;;16.09;100.00
75414;BME280;64758;52.122;5.404;2023-08-17T03:21:26;102262.63;;;16.09;99.61
75414;BME280;64758;52.122;5.404;2023-08-17T03:23:53;102248.97;;;16.04;99.77
75414;BME280;64758;52.122;5.404;2023-08-17T03:26:20;102259.69;;;16.04;99.67
75414;BME280;64758;52.122;5.404;2023-08-17T03:28:46;102252.28;;;16.06;99.77
75414;BME280;64758;52.122;5.404;2023-08-17T03:31:13;102248.97;;;16.04;99.51
75414;BME280;64758;52.122;5.404;2023-08-17T03:33:39;102254.31;;;16.04;99.53
75414;BME280;64758;52.122;5.404;2023-08-17T03:36:07;102234.28;;;16.00;99.56
75414;BME280;64758;52.122;5.404;2023-08-17T03:38:33;102254.50;;;16.03;99.22
75414;BME280;64758;52.122;5.404;2023-08-17T03:41:00;102243.78;;;16.03;99.95
75414;BME280;64758;52.122;5.404;2023-08-17T03:43:27;102247.69;;;16.00;99.45
75414;BME280;64758;52.122;5.404;2023-08-17T03:45:54;102255.72;;;16.00;99.83
75414;BME280;64758;52.122;5.404;2023-08-17T03:48:21;102249.50;;;16.00;99.50
75414;BME280;64758;52.122;5.404;2023-08-17T03:50:52;102235.47;;;15.98;99.64
75414;BME280;64758;52.122;5.404;2023-08-17T03:53:19;102251.38;;;15.99;99.58
75414;BME280;64758;52.122;5.404;2023-08-17T03:55:49;102244.72;;;15.95;99.50
75414;BME280;64758;52.122;5.404;2023-08-17T03:58:17;102242.69;;;15.97;99.31
75414;BME280;64758;52.122;5.404;2023-08-17T04:00:51;102239.38;;;15.95;99.79
75414;BME280;64758;52.122;5.404;2023-08-17T04:03:18;102247.41;;;15.95;100.00
75414;BME280;64758;52.122;5.404;2023-08-17T04:05:45;102249.88;;;15.97;99.22
75414;BME280;64758;52.122;5.404;2023-08-17T04:08:12;102252.56;;;15.97;99.20
75414;BME280;64758;52.122;5.404;2023-08-17T04:10:39;102247.41;;;15.95;99.40
75414;BME280;64758;52.122;5.404;2023-08-17T04:13:05;102250.72;;;15.97;99.45
75414;BME280;64758;52.122;5.404;2023-08-17T04:15:32;102253.59;;;15.96;99.44
75414;BME280;64758;52.122;5.404;2023-08-17T04:17:58;102263.28;;;15.97;99.04
75414;BME280;64758;52.122;5.404;2023-08-17T04:20:25;102250.53;;;15.99;98.95
75414;BME280;64758;52.122;5.404;2023-08-17T04:22:52;102253.41;;;15.97;99.40
75414;BME280;64758;52.122;5.404;2023-08-17T04:25:18;102262.53;;;16.03;99.28
75414;BME280;64758;52.122;5.404;2023-08-17T04:27:45;102258.41;;;16.00;99.18
75414;BME280;64758;52.122;5.404;2023-08-17T04:30:12;102248.88;;;15.98;98.95
75414;BME280;64758;52.122;5.404;2023-08-17T04:32:39;102254.69;;;16.01;98.66
75414;BME280;64758;52.122;5.404;2023-08-17T04:35:06;102252.03;;;16.01;98.92
75414;BME280;64758;52.122;5.404;2023-08-17T04:37:32;102252.19;;;16.00;99.00
75414;BME280;64758;52.122;5.404;2023-08-17T04:39:59;102246.00;;;15.99;99.46
75414;BME280;64758;52.122;5.404;2023-08-17T04:42:26;102247.69;;;16.00;99.20
75414;BME280;64758;52.122;5.404;2023-08-17T04:44:53;102242.31;;;16.00;98.96
75414;BME280;64758;52.122;5.404;2023-08-17T04:47:20;102239.44;;;16.02;99.09
75414;BME280;64758;52.122;5.404;2023-08-17T04:49:46;102239.44;;;16.02;99.07
75414;BME280;64758;52.122;5.404;2023-08-17T04:52:13;102246.28;;;16.04;98.71
75414;BME280;64758;52.122;5.404;2023-08-17T04:54:39;102237.88;;;16.07;98.94
75414;BME280;64758;52.122;5.404;2023-08-17T04:57:06;102237.50;;;16.10;98.87
75414;BME280;64758;52.122;5.404;2023-08-17T04:59:32;102231.28;;;16.10;99.17
75414;BME280;64758;52.122;5.404;2023-08-17T05:01:59;102240.81;;;16.12;98.39
75414;BME280;64758;52.122;5.404;2023-08-17T05:04:25;102245.34;;;16.12;98.63
75414;BME280;64758;52.122;5.404;2023-08-17T05:06:52;102238.78;;;16.14;99.08
75414;BME280;64758;52.122;5.404;2023-08-17T05:09:18;102233.41;;;16.14;98.96
75414;BME280;64758;52.122;5.404;2023-08-17T05:11:45;102232.78;;;16.12;98.68
75414;BME280;64758;52.122;5.404;2023-08-17T05:14:12;102240.44;;;16.15;98.94
75414;BME280;64758;52.122;5.404;2023-08-17T05:16:38;102230.09;;;16.12;98.86
75414;BME280;64758;52.122;5.404;2023-08-17T05:19:05;102230.75;;;16.14;99.02
75414;BME280;64758;52.122;5.404;2023-08-17T05:21:31;102230.53;;;16.16;98.90
75414;BME280;64758;52.122;5.404;2023-08-17T05:23:58;102224.34;;;16.15;99.07
75414;BME280;64758;52.122;5.404;2023-08-17T05:26:24;102231.38;;;16.16;98.91
75414;BME280;64758;52.122;5.404;2023-08-17T05:28:51;102232.03;;;16.18;98.82
75414;BME280;64758;52.122;5.404;2023-08-17T05:31:18;102234.88;;;16.17;98.78
75414;BME280;64758;52.122;5.404;2023-08-17T05:33:44;102228.31;;;16.19;99.02
75414;BME280;64758;52.122;5.404;2023-08-17T05:36:11;102236.63;;;16.24;99.24
75414;BME280;64758;52.122;5.404;2023-08-17T05:38:39;102243.06;;;16.30;99.10
75414;BME280;64758;52.122;5.404;2023-08-17T05:41:06;102232.84;;;16.33;98.93
75414;BME280;64758;52.122;5.404;2023-08-17T05:43:32;102237.25;;;16.41;98.29
75414;BME280;64758;52.122;5.404;2023-08-17T05:45:59;102234.84;;;16.46;98.24
75414;BME280;64758;52.122;5.404;2023-08-17T05:48:25;102233.81;;;16.47;97.93
75414;BME280;64758;52.122;5.404;2023-08-17T05:50:52;102233.91;;;16.53;97.65
75414;BME280;64758;52.122;5.404;2023-08-17T05:53:19;102233.31;;;16.58;97.42
75414;BME280;64758;52.122;5.404;2023-08-17T05:55:45;102223.84;;;16.62;97.63
75414;BME280;64758;52.122;5.404;2023-08-17T05:58:12;102235.66;;;16.67;97.59
75414;BME280;64758;52.122;5.404;2023-08-17T06:00:38;102238.34;;;16.67;97.11
75414;BME280;64758;52.122;5.404;2023-08-17T06:03:05;102238.59;;;16.72;96.88
75414;BME280;64758;52.122;5.404;2023-08-17T06:05:31;102246.09;;;16.76;97.88
75414;BME280;64758;52.122;5.404;2023-08-17T06:07:58;102252.16;;;16.85;97.57
75414;BME280;64758;52.122;5.404;2023-08-17T06:10:25;102255.69;;;16.85;97.41
75414;BME280;64758;52.122;5.404;2023-08-17T06:12:55;102266.78;;;16.82;96.64
75414;BME280;64758;52.122;5.404;2023-08-17T06:15:22;102258.53;;;16.84;96.88
75414;BME280;64758;52.122;5.404;2023-08-17T06:17:50;102260.59;;;16.82;96.49
75414;BME280;64758;52.122;5.404;2023-08-17T06:20:17;102262.06;;;16.84;96.97
75414;BME280;64758;52.122;5.404;2023-08-17T06:22:47;102270.56;;;16.88;97.18
75414;BME280;64758;52.122;5.404;2023-08-17T06:25:15;102264.75;;;16.84;96.24
75414;BME280;64758;52.122;5.404;2023-08-17T06:27:42;102267.69;;;16.89;96.90
75414;BME280;64758;52.122;5.404;2023-08-17T06:30:12;102259.63;;;16.89;96.45
75414;BME280;64758;52.122;5.404;2023-08-17T06:32:39;102273.06;;;16.89;97.02
75414;BME280;64758;52.122;5.404;2023-08-17T06:35:06;102269.78;;;16.94;96.74
75414;BME280;64758;52.122;5.404;2023-08-17T06:37:33;102269.59;;;16.95;97.28
75414;BME280;64758;52.122;5.404;2023-08-17T06:39:59;102269.41;;;16.97;96.75
75414;BME280;64758;52.122;5.404;2023-08-17T06:42:26;102275.41;;;16.99;96.19
75414;BME280;64758;52.122;5.404;2023-08-17T06:44:52;102271.91;;;16.98;96.51
75414;BME280;64758;52.122;5.404;2023-08-17T06:47:19;102267.19;;;17.00;96.41
75414;BME280;64758;52.122;5.404;2023-08-17T06:49:45;102267.59;;;17.04;96.38
75414;BME280;64758;52.122;5.404;2023-08-17T06:52:12;102264.53;;;17.07;96.06
75414;BME280;64758;52.122;5.404;2023-08-17T06:54:38;102271.19;;;17.11;96.10
75414;BME280;64758;52.122;5.404;2023-08-17T06:57:05;102275.13;;;17.15;96.38
75414;BME280;64758;52.122;5.404;2023-08-17T06:59:31;102277.44;;;17.18;95.46
75414;BME280;64758;52.122;5.404;2023-08-17T07:01:59;102272.06;;;17.18;95.74
75414;BME280;64758;52.122;5.404;2023-08-17T07:04:26;102275.00;;;17.23;96.45
75414;BME280;64758;52.122;5.404;2023-08-17T07:06:53;102275.47;;;17.26;95.02
75414;BME280;64758;52.122;5.404;2023-08-17T07:09:20;102272.31;;;17.23;94.83
75414;BME280;64758;52.122;5.404;2023-08-17T07:11:47;102282.09;;;17.30;94.85
75414;BME280;64758;52.122;5.404;2023-08-17T07:14:14;102272.84;;;17.33;94.76
75414;BME280;64758;52.122;5.404;2023-08-17T07:16:40;102271.81;;;17.34;95.64
75414;BME280;64758;52.122;5.404;2023-08-17T07:19:07;102281.34;;;17.36;94.09
75414;BME280;64758;52.122;5.404;2023-08-17T07:21:33;102275.97;;;17.36;93.26
75414;BME280;64758;52.122;5.404;2023-08-17T07:24:11;102284.47;;;17.40;93.75
75414;BME280;64758;52.122;5.404;2023-08-17T07:26:38;102276.25;;;17.48;93.59
75414;BME280;64758;52.122;5.404;2023-08-17T07:29:04;102278.41;;;17.59;93.74
75414;BME280;64758;52.122;5.404;2023-08-17T07:31:31;102277.00;;;17.63;93.75
75414;BME280;64758;52.122;5.404;2023-08-17T07:34:00;102279.97;;;17.74;94.57
75414;BME280;64758;52.122;5.404;2023-08-17T07:36:27;102276.09;;;17.83;93.73
75414;BME280;64758;52.122;5.404;2023-08-17T07:38:53;102275.91;;;17.91;94.04
75414;BME280;64758;52.122;5.404;2023-08-17T07:41:20;102275.97;;;17.97;92.62
75414;BME280;64758;52.122;5.404;2023-08-17T07:43:46;102275.22;;;18.16;92.93
75414;BME280;64758;52.122;5.404;2023-08-17T07:46:13;102268.91;;;18.30;91.81
75414;BME280;64758;52.122;5.404;2023-08-17T07:48:40;102277.41;;;18.40;90.85
75414;BME280;64758;52.122;5.404;2023-08-17T07:51:06;102269.16;;;18.48;90.47
75414;BME280;64758;52.122;5.404;2023-08-17T07:53:33;102273.31;;;18.51;90.86
75414;BME280;64758;52.122;5.404;2023-08-17T07:55:59;102269.41;;;18.53;90.21
75414;BME280;64758;52.122;5.404;2023-08-17T07:58:26;102278.50;;;18.52;89.25
75414;BME280;64758;52.122;5.404;2023-08-17T08:00:53;102287.16;;;18.48;90.14
75414;BME280;64758;52.122;5.404;2023-08-17T08:03:19;102276.41;;;18.48;89.41
75414;BME280;64758;52.122;5.404;2023-08-17T08:05:46;102270.25;;;18.60;90.19
75414;BME280;64758;52.122;5.404;2023-08-17T08:08:12;102274.19;;;18.71;89.57
75414;BME280;64758;52.122;5.404;2023-08-17T08:10:40;102277.94;;;18.76;88.57
75414;BME280;64758;52.122;5.404;2023-08-17T08:13:07;102268.00;;;18.83;88.78
75414;BME280;64758;52.122;5.404;2023-08-17T08:15:34;102272.56;;;18.89;88.07
75414;BME280;64758;52.122;5.404;2023-08-17T08:18:00;102266.97;;;18.91;88.13
75414;BME280;64758;52.122;5.404;2023-08-17T08:20:27;102271.13;;;19.00;88.47
75414;BME280;64758;52.122;5.404;2023-08-17T08:22:54;102277.16;;;19.08;88.05
75414;BME280;64758;52.122;5.404;2023-08-17T08:25:20;102276.91;;;18.97;87.41
75414;BME280;64758;52.122;5.404;2023-08-17T08:27:47;102278.78;;;18.83;87.13
75414;BME280;64758;52.122;5.404;2023-08-17T08:30:13;102271.94;;;18.81;87.52
75414;BME280;64758;52.122;5.404;2023-08-17T08:32:40;102268.59;;;18.79;88.55
75414;BME280;64758;52.122;5.404;2023-08-17T08:35:06;102274.22;;;18.77;88.05
75414;BME280;64758;52.122;5.404;2023-08-17T08:37:33;102270.47;;;18.72;89.22
75414;BME280;64758;52.122;5.404;2023-08-17T08:40:00;102272.34;;;18.71;89.49
75414;BME280;64758;52.122;5.404;2023-08-17T08:42:27;102272.56;;;18.76;89.93
75414;BME280;64758;52.122;5.404;2023-08-17T08:44:54;102280.63;;;18.76;88.92
75414;BME280;64758;52.122;5.404;2023-08-17T08:47:21;102271.72;;;18.76;88.74
75414;BME280;64758;52.122;5.404;2023-08-17T08:50:00;102271.72;;;18.82;88.47
75414;BME280;64758;52.122;5.404;2023-08-17T08:52:35;102258.25;;;18.89;88.25
75414;BME280;64758;52.122;5.404;2023-08-17T08:55:23;102263.25;;;18.98;88.31
75414;BME280;64758;52.122;5.404;2023-08-17T08:57:49;102257.47;;;19.01;86.58
75414;BME280;64758;52.122;5.404;2023-08-17T09:00:19;102266.97;;;19.04;87.59
75414;BME280;64758;52.122;5.404;2023-08-17T09:02:46;102257.66;;;19.00;87.16
75414;BME280;64758;52.122;5.404;2023-08-17T09:05:13;102261.81;;;19.02;88.04
75414;BME280;64758;52.122;5.404;2023-08-17T09:07:42;102260.16;;;19.01;86.55
75414;BME280;64758;52.122;5.404;2023-08-17T09:10:09;102264.06;;;18.99;86.21
75414;BME280;64758;52.122;5.404;2023-08-17T09:12:36;102250.84;;;19.10;86.53
75414;BME280;64758;52.122;5.404;2023-08-17T09:15:07;102251.47;;;19.25;87.83
75414;BME280;64758;52.122;5.404;2023-08-17T09:17:34;102248.34;;;19.28;86.70
75414;BME280;64758;52.122;5.404;2023-08-17T09:20:01;102256.84;;;19.31;86.53
75414;BME280;64758;52.122;5.404;2023-08-17T09:22:39;102244.81;;;19.40;86.47
75414;BME280;64758;52.122;5.404;2023-08-17T09:25:07;102246.03;;;19.51;86.79
75414;BME280;64758;52.122;5.404;2023-08-17T09:27:36;102246.03;;;19.57;85.50
75414;BME280;64758;52.122;5.404;2023-08-17T09:30:08;102239.19;;;19.61;86.47
75414;BME280;64758;52.122;5.404;2023-08-17T09:32:35;102242.91;;;19.73;86.67
75414;BME280;64758;52.122;5.404;2023-08-17T09:35:03;102229.38;;;19.80;86.46
75414;BME280;64758;52.122;5.404;2023-08-17T09:37:34;102234.97;;;19.85;84.19
75414;BME280;64758;52.122;5.404;2023-08-17T09:40:01;102240.78;;;19.82;85.47
75414;BME280;64758;52.122;5.404;2023-08-17T09:42:27;102247.59;;;19.91;85.82
75414;BME280;64758;52.122;5.404;2023-08-17T09:44:54;102245.09;;;19.96;86.01
75414;BME280;64758;52.122;5.404;2023-08-17T09:47:22;102235.16;;;19.90;85.15
75414;BME280;64758;52.122;5.404;2023-08-17T09:49:51;102226.88;;;19.91;83.78
75414;BME280;64758;52.122;5.404;2023-08-17T09:52:19;102226.25;;;19.89;83.52
75414;BME280;64758;52.122;5.404;2023-08-17T09:54:46;102227.50;;;19.87;84.86
75414;BME280;64758;52.122;5.404;2023-08-17T09:57:16;102234.97;;;19.91;84.64
75414;BME280;64758;52.122;5.404;2023-08-17T09:59:48;102228.53;;;19.86;83.63
75414;BME280;64758;52.122;5.404;2023-08-17T10:02:22;102227.91;;;19.84;84.39
75414;BME280;64758;52.122;5.404;2023-08-17T10:04:53;102233.31;;;19.84;83.56
75414;BME280;64758;52.122;5.404;2023-08-17T10:07:29;102229.56;;;19.85;84.06
75414;BME280;64758;52.122;5.404;2023-08-17T10:10:04;102226.44;;;19.88;84.91
75414;BME280;64758;52.122;5.404;2023-08-17T10:12:42;102223.13;;;19.86;85.70
75414;BME280;64758;52.122;5.404;2023-08-17T10:15:13;102227.50;;;19.87;85.30
75414;BME280;64758;52.122;5.404;2023-08-17T10:18:09;102211.53;;;19.79;84.97
75414;BME280;64758;52.122;5.404;2023-08-17T10:20:45;102211.34;;;19.74;86.65
75414;BME280;64758;52.122;5.404;2023-08-17T10:23:18;102214.47;;;19.71;84.06
75414;BME280;64758;52.122;5.404;2023-08-17T10:25:47;102218.81;;;19.72;84.34
75414;BME280;64758;52.122;5.404;2023-08-17T10:28:17;102217.59;;;19.74;85.45
75414;BME280;64758;52.122;5.404;2023-08-17T10:30:44;102207.00;;;19.79;84.05
75414;BME280;64758;52.122;5.404;2023-08-17T10:33:11;102211.72;;;19.90;84.16
75414;BME280;64758;52.122;5.404;2023-08-17T10:35:38;102210.25;;;19.88;84.35
75414;BME280;64758;52.122;5.404;2023-08-17T10:38:06;102210.25;;;19.88;83.45
75414;BME280;64758;52.122;5.404;2023-08-17T10:40:39;102209.03;;;19.84;84.93
75414;BME280;64758;52.122;5.404;2023-08-17T10:43:06;102210.06;;;19.83;84.64
75414;BME280;64758;52.122;5.404;2023-08-17T10:45:36;102204.53;;;19.71;84.14
75414;BME280;64758;52.122;5.404;2023-08-17T10:50:32;102218.00;;;19.71;85.96
75414;BME280;64758;52.122;5.404;2023-08-17T10:53:04;102218.19;;;19.70;85.15
75414;BME280;64758;52.122;5.404;2023-08-17T10:55:39;102215.94;;;19.67;85.54
75414;BME280;64758;52.122;5.404;2023-08-17T10:58:06;102216.97;;;19.72;85.09
75414;BME280;64758;52.122;5.404;2023-08-17T11:00:40;102217.34;;;19.76;85.43
75414;BME280;64758;52.122;5.404;2023-08-17T11:03:10;102215.09;;;19.73;85.39
75414;BME280;64758;52.122;5.404;2023-08-17T11:05:45;102219.44;;;19.74;85.86
75414;BME280;64758;52.122;5.404;2023-08-17T11:08:39;102208.03;;;19.72;85.25
75414;BME280;64758;52.122;5.404;2023-08-17T11:11:11;102206.56;;;19.76;85.36
75414;BME280;64758;52.122;5.404;2023-08-17T11:13:40;102202.63;;;19.78;85.37
75414;BME280;64758;52.122;5.404;2023-08-17T11:16:08;102200.75;;;19.79;86.50
75414;BME280;64758;52.122;5.404;2023-08-17T11:18:35;102210.69;;;19.85;86.35
75414;BME280;64758;52.122;5.404;2023-08-17T11:21:03;102210.06;;;19.89;86.03
75414;BME280;64758;52.122;5.404;2023-08-17T11:23:32;102198.66;;;19.87;85.48
75414;BME280;64758;52.122;5.404;2023-08-17T11:25:59;102203.41;;;19.92;85.23
75414;BME280;64758;52.122;5.404;2023-08-17T11:28:26;102195.50;;;19.97;85.46
75414;BME280;64758;52.122;5.404;2023-08-17T11:30:57;102200.69;;;19.98;85.17
75414;BME280;64758;52.122;5.404;2023-08-17T11:33:28;102208.56;;;20.06;85.84
75414;BME280;64758;52.122;5.404;2023-08-17T11:35:56;102211.91;;;20.02;83.44
75414;BME280;64758;52.122;5.404;2023-08-17T11:38:31;102212.53;;;19.97;84.45
75414;BME280;64758;52.122;5.404;2023-08-17T11:40:58;102216.03;;;19.98;86.05
75414;BME280;64758;52.122;5.404;2023-08-17T11:43:27;102211.06;;;19.95;83.29
75414;BME280;64758;52.122;5.404;2023-08-17T11:45:55;102209.81;;;19.97;84.84
75414;BME280;64758;52.122;5.404;2023-08-17T11:48:21;102204.84;;;20.01;84.08
75414;BME280;64758;52.122;5.404;2023-08-17T11:50:49;102197.78;;;20.00;84.97
75414;BME280;64758;52.122;5.404;2023-08-17T11:53:16;102196.75;;;20.07;86.47
75414;BME280;64758;52.122;5.404;2023-08-17T11:55:43;102192.34;;;20.13;86.67
75414;BME280;64758;52.122;5.404;2023-08-17T11:58:10;102202.28;;;20.19;84.47
75414;BME280;64758;52.122;5.404;2023-08-17T12:00:41;102197.72;;;20.13;84.30
75414;BME280;64758;52.122;5.404;2023-08-17T12:03:07;102196.50;;;20.15;83.87
75414;BME280;64758;52.122;5.404;2023-08-17T12:05:35;102188.22;;;20.10;83.42
75414;BME280;64758;52.122;5.404;2023-08-17T12:08:02;102190.69;;;20.12;85.96
75414;BME280;64758;52.122;5.404;2023-08-17T12:10:31;102195.44;;;20.16;84.60
75414;BME280;64758;52.122;5.404;2023-08-17T12:12:58;102190.44;;;20.20;85.76
75414;BME280;64758;52.122;5.404;2023-08-17T12:15:35;102194.03;;;20.07;84.42
75414;BME280;64758;52.122;5.404;2023-08-17T12:18:03;102187.63;;;19.95;84.94
75414;BME280;64758;52.122;5.404;2023-08-17T12:20:32;102195.72;;;19.95;85.39
75414;BME280;64758;52.122;5.404;2023-08-17T12:23:01;102195.09;;;19.93;85.38
75414;BME280;64758;52.122;5.404;2023-08-17T12:25:28;102188.69;;;19.94;85.50
75414;BME280;64758;52.122;5.404;2023-08-17T12:28:00;102196.53;;;19.96;86.29
75414;BME280;64758;52.122;5.404;2023-08-17T12:30:31;102191.16;;;20.02;86.01
75414;BME280;64758;52.122;5.404;2023-08-17T12:32:59;102189.91;;;19.98;85.65
75414;BME280;64758;52.122;5.404;2023-08-17T12:35:26;102185.97;;;20.01;86.56
75414;BME280;64758;52.122;5.404;2023-08-17T12:37:53;102191.78;;;20.04;85.42
75414;BME280;64758;52.122;5.404;2023-08-17T12:40:22;102194.84;;;20.08;85.78
75414;BME280;64758;52.122;5.404;2023-08-17T12:42:49;102190.31;;;20.08;85.73
75414;BME280;64758;52.122;5.404;2023-08-17T12:45:16;102195.50;;;20.03;86.64
75414;BME280;64758;52.122;5.404;2023-08-17T12:47:42;102192.78;;;19.97;85.48
75414;BME280;64758;52.122;5.404;2023-08-17T12:50:09;102203.44;;;19.85;85.99
75414;BME280;64758;52.122;5.404;2023-08-17T12:52:36;102203.63;;;19.84;86.41
75414;BME280;64758;52.122;5.404;2023-08-17T12:55:03;102205.47;;;19.90;87.12
75414;BME280;64758;52.122;5.404;2023-08-17T12:57:29;102204.25;;;19.92;87.53
75414;BME280;64758;52.122;5.404;2023-08-17T12:59:56;102200.94;;;19.90;87.55